Time,TemperatureF,DewpointF,PressureIn,WindDirection,WindDirectionDegrees,WindSpeedMPH,WindSpeedGustMPH,Humidity,HourlyPrecipIn,Conditions,Clouds,dailyrainin,SoftwareType,DateUTC
2013-01-29 00:00:00,45.0,42.2,30.15,SW,227,2.0,2.0,90,0.00,,,0.20,Wunderground v.1.15,2013-01-29 05:00:00,
2013-01-29 00:10:00,44.6,41.8,30.14,West,262,2.0,2.0,90,0.00,,,0.00,Wunderground v.1.15,2013-01-29 05:10:00,
2013-01-29 00:20:00,44.9,42.4,30.13,SE,142,2.0,2.0,91,0.00,,,0.00,Wunderground v.1.15,2013-01-29 05:20:00,
2013-01-29 00:30:00,45.0,42.2,30.14,SSW,206,1.0,1.0,90,0.00,,,0.00,Wunderground v.1.15,2013-01-29 05:30:00,
2013-01-29 00:40:00,44.9,42.1,30.14,SSW,192,2.0,2.0,90,0.00,,,0.00,Wunderground v.1.15,2013-01-29 05:40:00,
2013-01-29 00:50:00,44.6,41.8,30.14,SE,144,1.0,4.0,90,0.00,,,0.00,Wunderground v.1.15,2013-01-29 05:50:00,
2013-01-29 01:00:00,44.7,42.2,30.14,SW,236,2.0,2.0,91,0.00,,,0.00,Wunderground v.1.15,2013-01-29 06:00:00,
2013-01-29 01:10:00,44.2,41.7,30.14,South,172,2.0,3.0,91,0.00,,,0.00,Wunderground v.1.15,2013-01-29 06:10:00,
2013-01-29 01:20:00,44.1,41.9,30.14,South,171,2.0,3.0,92,0.00,,,0.00,Wunderground v.1.15,2013-01-29 06:20:00,
2013-01-29 01:30:00,44.0,42.1,30.14,SSW,202,2.0,2.0,93,0.00,,,0.00,Wunderground v.1.15,2013-01-29 06:30:00,
2013-01-29 01:40:00,44.5,42.3,30.14,SE,138,1.0,4.0,92,0.00,,,0.00,Wunderground v.1.15,2013-01-29 06:40:00,
2013-01-29 01:50:00,44.7,42.5,30.14,SSE,163,2.0,4.0,92,0.00,,,0.00,Wunderground v.1.15,2013-01-29 06:50:00,
2013-01-29 02:00:00,44.9,42.4,30.14,West,270,2.0,2.0,91,0.00,,,0.00,Wunderground v.1.15,2013-01-29 07:00:00,
2013-01-29 02:10:00,44.8,42.3,30.14,South,171,2.0,2.0,91,0.00,,,0.00,Wunderground v.1.15,2013-01-29 07:10:00,
2013-01-29 02:20:00,44.8,42.3,30.14,SE,130,3.0,4.0,91,0.00,,,0.00,Wunderground v.1.15,2013-01-29 07:20:00,
2013-01-29 02:30:00,45.3,42.5,30.14,South,180,3.0,6.0,90,0.00,,,0.00,Wunderground v.1.15,2013-01-29 07:30:00,
2013-01-29 02:40:00,45.5,43.0,30.14,SSW,207,3.0,5.0,91,0.00,,,0.00,Wunderground v.1.15,2013-01-29 07:40:00,
2013-01-29 02:50:00,45.5,42.7,30.15,SW,219,2.0,2.0,90,0.00,,,0.00,Wunderground v.1.15,2013-01-29 07:50:00,
2013-01-29 03:00:00,45.8,42.7,30.14,SSW,205,2.0,2.0,89,0.00,,,0.00,Wunderground v.1.15,2013-01-29 08:00:00,
2013-01-29 03:10:00,45.1,42.3,30.14,SSW,196,2.0,2.0,90,0.00,,,0.00,Wunderground v.1.15,2013-01-29 08:10:00,
2013-01-29 03:20:00,44.6,42.1,30.14,East,86,1.0,3.0,91,0.00,,,0.00,Wunderground v.1.15,2013-01-29 08:20:00,
2013-01-29 03:30:00,44.5,42.3,30.14,SW,218,1.0,1.0,92,0.00,,,0.00,Wunderground v.1.15,2013-01-29 08:30:00,
2013-01-29 03:40:00,44.0,41.3,30.14,WSW,240,2.0,7.0,90,0.00,,,0.00,Wunderground v.1.15,2013-01-29 08:40:00,
2013-01-29 03:50:00,43.6,41.4,30.14,SSW,212,2.0,2.0,92,0.00,,,0.00,Wunderground v.1.15,2013-01-29 08:50:00,
2013-01-29 04:00:00,43.2,41.0,30.14,SSW,202,1.0,1.0,92,0.00,,,0.00,Wunderground v.1.15,2013-01-29 09:00:00,
2013-01-29 04:10:00,43.1,41.2,30.13,WSW,242,1.0,1.0,93,0.00,,,0.00,Wunderground v.1.15,2013-01-29 09:10:00,
2013-01-29 04:20:00,43.1,41.2,30.14,SW,216,1.0,1.0,93,0.00,,,0.00,Wunderground v.1.15,2013-01-29 09:20:00,
2013-01-29 04:30:00,43.4,41.5,30.14,SW,222,1.0,1.0,93,0.00,,,0.00,Wunderground v.1.15,2013-01-29 09:30:00,
2013-01-29 04:40:00,43.8,41.9,30.14,West,269,1.0,5.0,93,0.00,,,0.00,Wunderground v.1.15,2013-01-29 09:40:00,
2013-01-29 04:50:00,44.3,42.4,30.14,SW,215,1.0,1.0,93,0.00,,,0.00,Wunderground v.1.15,2013-01-29 09:50:00,
2013-01-29 05:00:00,43.9,41.7,30.14,South,186,1.0,2.0,92,0.00,,,0.00,Wunderground v.1.15,2013-01-29 10:00:00,
2013-01-29 05:10:00,43.2,41.0,30.14,WSW,250,1.0,1.0,92,0.00,,,0.00,Wunderground v.1.15,2013-01-29 10:10:00,
2013-01-29 05:20:00,43.1,41.5,30.14,SSW,209,1.0,2.0,94,0.00,,,0.00,Wunderground v.1.15,2013-01-29 10:20:00,
2013-01-29 05:30:00,42.8,41.2,30.15,SSW,209,1.0,1.0,94,0.00,,,0.00,Wunderground v.1.15,2013-01-29 10:30:00,
2013-01-29 05:40:00,42.5,40.9,30.15,SSW,209,1.0,6.0,94,0.00,,,0.00,Wunderground v.1.15,2013-01-29 10:40:00,
2013-01-29 05:50:00,43.0,41.9,30.15,SE,134,1.0,6.0,96,0.00,,,0.00,Wunderground v.1.15,2013-01-29 10:50:00,
2013-01-29 06:00:00,43.3,42.0,30.15,SE,135,1.0,1.0,95,0.00,,,0.00,Wunderground v.1.15,2013-01-29 11:00:00,
2013-01-29 06:10:00,43.3,41.7,30.14,SE,135,1.0,1.0,94,0.00,,,0.00,Wunderground v.1.15,2013-01-29 11:10:00,
2013-01-29 06:20:00,43.1,41.5,30.15,SE,135,1.0,1.0,94,0.00,,,0.00,Wunderground v.1.15,2013-01-29 11:20:00,
2013-01-29 06:30:00,42.9,41.3,30.16,SE,135,1.0,2.0,94,0.00,,,0.00,Wunderground v.1.15,2013-01-29 11:30:00,
2013-01-29 06:40:00,42.5,40.9,30.15,SE,135,1.0,4.0,94,0.00,,,0.00,Wunderground v.1.15,2013-01-29 11:40:00,
2013-01-29 06:50:00,41.9,40.3,30.16,SE,135,1.0,4.0,94,0.00,,,0.00,Wunderground v.1.15,2013-01-29 11:50:00,
2013-01-29 07:00:00,41.6,40.3,30.15,SE,135,0.0,0.0,95,0.00,,,0.00,Wunderground v.1.15,2013-01-29 12:00:00,
2013-01-29 07:10:00,41.3,39.7,30.15,SE,135,1.0,1.0,94,0.00,,,0.00,Wunderground v.1.15,2013-01-29 12:10:00,
2013-01-29 07:20:00,40.8,39.5,30.16,South,188,1.0,1.0,95,0.00,,,0.00,Wunderground v.1.15,2013-01-29 12:20:00,
2013-01-29 07:30:00,40.9,39.8,30.16,SSW,202,1.0,1.0,96,0.00,,,0.00,Wunderground v.1.15,2013-01-29 12:30:00,
2013-01-29 07:40:00,41.4,40.3,30.16,SSW,211,1.0,3.0,96,0.00,,,0.00,Wunderground v.1.15,2013-01-29 12:40:00,
2013-01-29 07:50:00,41.7,40.6,30.16,SSW,211,1.0,1.0,96,0.00,,,0.00,Wunderground v.1.15,2013-01-29 12:50:00,
2013-01-29 08:00:00,42.7,41.9,30.16,SSW,211,1.0,1.0,97,0.00,,,0.00,Wunderground v.1.15,2013-01-29 13:00:00,
2013-01-29 08:10:00,43.3,42.5,30.17,SSW,211,0.0,0.0,97,0.00,,,0.00,Wunderground v.1.15,2013-01-29 13:10:00,
2013-01-29 08:20:00,44.2,43.1,30.17,SSW,211,0.0,1.0,96,0.00,,,0.00,Wunderground v.1.15,2013-01-29 13:20:00,